Lasauses, Colorado
Current Conditions -  °F | °C
As of 11:52 PM on Sunday 23 Nov 2014 (Local Time) from KALS Reporting Station
Clear Clear  
Wind Chill:   Ceiling: Unl
Heat Index:   Visibility: 10mi
Dew Point:   Wind: 0mph
Humidity: 70%   Direction: NA
Pressure: 30"   Gusts: NA
Location:  37.2401°N, 105.856°W
Report Text: KALS 240652Z AUTO 00000KT 10SM CLR M13/M17 A3000 RMK AO2 SLP186 T11281172 400441128
Loading
Personal Weather Stations






























Interactive Weather Map New forecast layout! Learn more

10-Day Weather Forecast

Advertisements
Track Severe Weather on mobile